METAR Formatted Surface Weather Observation
Issued by NWS

Home | Current Version | Previous Version | Text Only | Print | Product List | Glossary On
Versions: 1 2
043
SAUS45 KREV 222058 COR
MTRDRA
METAR KDRA 222053Z AUTO 26009KT 10SM OVC095 18/M04 A2962 RMK AO2
SLP000 T01781039 56005



USA.gov is the U.S. government's official web portal to all federal, state and local government web resources and services.